URMM 171700Z 25003MPS 9999 NSC 16/09 Q1015 R30/090070 NOSIG RMK QFE733/0977
QNH:(hPa/inHg/mmHg)1015 / 29.97 / 761
QFE:(hPa/inHg/mmHg)976 / 28.83 / 732
Temperature16
Dew Point9
Visibility> 10000
Weather
Cloud Cover
Transition Altitude7000 ft.
Transition LevelFL80
SQUAWK